createdAt,value
2019-01-15T00:00:31.440Z,19.17
2019-01-15T00:02:58.085Z,16.93
2019-01-15T00:05:24.707Z,17.13
2019-01-15T00:07:51.401Z,18.60
2019-01-15T00:10:19.492Z,18.87
2019-01-15T00:12:46.072Z,14.27
2019-01-15T00:15:12.827Z,16.20
2019-01-15T00:17:41.631Z,20.80
2019-01-15T00:20:13.822Z,17.60
2019-01-15T00:22:40.530Z,18.27
2019-01-15T00:25:09.051Z,14.03
2019-01-15T00:27:36.009Z,14.43
2019-01-15T00:30:09.349Z,18.50
2019-01-15T00:32:36.034Z,16.33
2019-01-15T00:35:04.937Z,22.27
2019-01-15T00:37:31.712Z,16.63
2019-01-15T00:40:00.019Z,18.33
2019-01-15T00:42:27.774Z,22.10
2019-01-15T00:44:54.887Z,17.03
2019-01-15T00:47:21.495Z,19.93
2019-01-15T00:49:48.157Z,21.63
2019-01-15T00:52:15.092Z,17.47
2019-01-15T00:54:41.656Z,17.17
2019-01-15T00:57:09.310Z,22.63
2019-01-15T00:59:36.048Z,21.07
2019-01-15T01:02:02.892Z,18.50
2019-01-15T01:04:29.532Z,21.37
2019-01-15T01:06:57.930Z,19.23
2019-01-15T01:09:24.562Z,18.23
2019-01-15T01:11:51.088Z,25.70
2019-01-15T01:14:17.715Z,22.90
2019-01-15T01:16:44.324Z,18.03
2019-01-15T01:19:10.961Z,24.77
2019-01-15T01:21:39.085Z,22.20
2019-01-15T01:24:05.760Z,18.43
2019-01-15T01:26:32.403Z,22.23
2019-01-15T01:28:58.946Z,24.63
2019-01-15T01:31:25.708Z,19.13
2019-01-15T01:33:52.350Z,22.17
2019-01-15T01:36:18.988Z,20.67
2019-01-15T01:38:45.656Z,21.03
2019-01-15T01:41:12.269Z,20.43
2019-01-15T01:43:39.889Z,19.07
2019-01-15T01:46:07.020Z,20.77
2019-01-15T01:48:33.543Z,20.20
2019-01-15T01:51:00.138Z,15.90
2019-01-15T01:53:26.883Z,18.80
2019-01-15T01:55:54.043Z,23.17
2019-01-15T01:58:20.868Z,16.77
2019-01-15T02:00:47.393Z,18.13
2019-01-15T02:03:14.290Z,19.20
2019-01-15T02:05:43.864Z,19.33
2019-01-15T02:08:10.421Z,13.77
2019-01-15T02:10:37.048Z,17.70
2019-01-15T02:13:03.740Z,13.70
2019-01-15T02:15:30.405Z,13.67
2019-01-15T02:17:57.097Z,15.83
2019-01-15T02:20:23.730Z,15.80
2019-01-15T02:22:50.541Z,14.37
2019-01-15T02:25:17.135Z,13.00
2019-01-15T02:27:45.903Z,17.93
2019-01-15T02:30:15.649Z,14.97
2019-01-15T02:32:44.039Z,18.30
2019-01-15T02:35:13.552Z,19.30
2019-01-15T02:37:43.022Z,16.80
2019-01-15T02:40:11.916Z,18.50
2019-01-15T02:42:46.381Z,16.13
2019-01-15T02:45:19.173Z,14.43
2019-01-15T02:47:46.278Z,14.93
2019-01-15T02:50:17.510Z,17.03
2019-01-15T02:52:45.377Z,19.80
2019-01-15T02:55:16.455Z,17.57
2019-01-15T02:57:43.600Z,21.80
2019-01-15T03:00:13.673Z,21.33
2019-01-15T03:02:40.285Z,21.83
2019-01-15T03:05:08.409Z,19.33
2019-01-15T03:07:35.150Z,18.77
2019-01-15T03:10:14.811Z,21.07
2019-01-15T03:12:43.573Z,18.37
2019-01-15T03:15:10.245Z,23.33
2019-01-15T03:17:37.489Z,19.57
2019-01-15T03:20:07.532Z,16.67
2019-01-15T03:22:34.594Z,23.17
2019-01-15T03:25:01.431Z,17.70
2019-01-15T03:27:28.070Z,17.37
2019-01-15T03:29:56.611Z,20.43
2019-01-15T03:32:23.214Z,19.37
2019-01-15T03:34:51.895Z,20.23
2019-01-15T03:37:18.530Z,19.00
2019-01-15T03:39:45.022Z,20.73
2019-01-15T03:42:11.619Z,16.80
2019-01-15T03:44:38.266Z,18.90
2019-01-15T03:47:05.105Z,19.17
2019-01-15T03:49:31.821Z,18.90
2019-01-15T03:51:58.355Z,19.13
2019-01-15T03:54:25.040Z,17.53
2019-01-15T03:56:51.700Z,19.30
2019-01-15T03:59:20.534Z,20.83
2019-01-15T04:01:47.180Z,21.63
2019-01-15T04:04:13.810Z,21.67
2019-01-15T04:06:40.455Z,23.70
2019-01-15T04:09:07.489Z,22.63
2019-01-15T04:11:34.124Z,21.67
2019-01-15T04:14:01.655Z,18.80
2019-01-15T04:16:28.273Z,17.97
2019-01-15T04:18:55.269Z,18.27
2019-01-15T04:21:21.967Z,19.97
2019-01-15T04:23:48.479Z,18.70
2019-01-15T04:26:15.330Z,21.03
2019-01-15T04:28:41.941Z,19.10
2019-01-15T04:31:08.535Z,24.27
2019-01-15T04:33:35.176Z,21.67
2019-01-15T04:36:01.929Z,20.13
2019-01-15T04:38:29.473Z,21.63
2019-01-15T04:40:56.033Z,19.93
2019-01-15T04:43:22.582Z,21.23
2019-01-15T04:45:49.298Z,21.87
2019-01-15T04:48:15.959Z,22.50
2019-01-15T04:50:42.560Z,26.57
2019-01-15T04:53:09.264Z,23.03
2019-01-15T04:55:36.888Z,20.03
2019-01-15T04:58:04.484Z,24.70
2019-01-15T05:00:32.363Z,25.47
2019-01-15T05:02:59.828Z,24.67
2019-01-15T05:05:27.539Z,29.03
2019-01-15T05:07:54.077Z,23.77
2019-01-15T05:10:20.737Z,24.70
2019-01-15T05:12:47.414Z,26.37
2019-01-15T05:15:15.368Z,23.83
2019-01-15T05:17:42.009Z,26.97
2019-01-15T05:20:14.105Z,26.80
2019-01-15T05:22:40.823Z,26.90
2019-01-15T05:25:11.012Z,26.63
2019-01-15T05:27:37.639Z,31.10
2019-01-15T05:30:07.878Z,29.57
2019-01-15T05:32:34.518Z,30.43
2019-01-15T05:35:01.067Z,24.63
2019-01-15T05:37:27.594Z,27.00
2019-01-15T05:39:54.211Z,28.73
2019-01-15T05:42:20.627Z,34.20
2019-01-15T05:44:47.178Z,25.10
2019-01-15T05:47:14.528Z,27.83
2019-01-15T05:49:41.098Z,32.07
2019-01-15T05:52:07.850Z,28.93
2019-01-15T05:54:34.380Z,25.17
2019-01-15T05:57:00.849Z,25.37
2019-01-15T05:59:27.508Z,29.43
2019-01-15T06:01:54.362Z,28.27
2019-01-15T06:04:20.946Z,31.10
2019-01-15T06:06:47.557Z,24.77
2019-01-15T06:09:14.229Z,25.87
2019-01-15T06:11:42.202Z,24.40
2019-01-15T06:14:09.006Z,24.97
2019-01-15T06:16:35.668Z,23.23
2019-01-15T06:19:02.374Z,23.00
2019-01-15T06:21:29.014Z,27.77
2019-01-15T06:23:55.627Z,21.30
2019-01-15T06:26:22.303Z,22.43
2019-01-15T06:28:50.712Z,25.90
2019-01-15T06:31:17.948Z,27.30
2019-01-15T06:33:44.445Z,23.43
2019-01-15T06:36:11.052Z,24.90
2019-01-15T06:38:39.602Z,20.57
2019-01-15T06:41:06.678Z,21.97
2019-01-15T06:43:33.630Z,21.33
2019-01-15T06:46:01.860Z,24.70
2019-01-15T06:48:28.710Z,23.93
2019-01-15T06:50:55.290Z,26.27
2019-01-15T06:53:21.920Z,24.53
2019-01-15T06:55:49.767Z,22.50
2019-01-15T06:58:16.377Z,24.67
2019-01-15T07:00:42.913Z,22.03
2019-01-15T07:03:10.368Z,27.97
2019-01-15T07:05:37.095Z,22.07
2019-01-15T07:08:03.877Z,24.80
2019-01-15T07:10:33.631Z,21.23
2019-01-15T07:13:01.848Z,23.30
2019-01-15T07:15:28.496Z,24.07
2019-01-15T07:17:55.113Z,23.40
2019-01-15T07:20:21.608Z,24.73
2019-01-15T07:22:48.324Z,24.03
2019-01-15T07:25:18.430Z,26.93
2019-01-15T07:27:45.032Z,27.30
2019-01-15T07:30:15.068Z,28.97
2019-01-15T07:32:41.682Z,34.90
2019-01-15T07:35:08.292Z,27.47
2019-01-15T07:37:34.927Z,26.83
2019-01-15T07:40:01.552Z,23.53
2019-01-15T07:42:28.054Z,24.57
2019-01-15T07:44:54.725Z,28.70
2019-01-15T07:47:21.304Z,30.97
2019-01-15T07:49:47.841Z,25.30
2019-01-15T07:52:14.456Z,25.83
2019-01-15T07:54:40.993Z,30.70
2019-01-15T07:57:07.622Z,30.00
2019-01-15T07:59:34.291Z,32.00
2019-01-15T08:02:01.000Z,28.77
2019-01-15T08:04:29.378Z,27.40
2019-01-15T08:06:56.125Z,32.67
2019-01-15T08:09:22.783Z,31.07
2019-01-15T08:11:49.460Z,30.77
2019-01-15T08:14:15.968Z,30.80
2019-01-15T08:16:42.712Z,30.33
2019-01-15T08:19:09.492Z,27.97
2019-01-15T08:21:36.198Z,32.43
2019-01-15T08:24:03.190Z,35.10
2019-01-15T08:26:29.956Z,33.97
2019-01-15T08:28:56.594Z,30.77
2019-01-15T08:31:23.531Z,33.13
2019-01-15T08:33:52.315Z,31.33
2019-01-15T08:36:20.413Z,34.73
2019-01-15T08:38:47.033Z,28.73
2019-01-15T08:41:13.712Z,33.90
2019-01-15T08:43:42.165Z,29.40
2019-01-15T08:46:08.605Z,36.00
2019-01-15T08:48:35.567Z,31.40
2019-01-15T08:51:03.719Z,37.77
2019-01-15T08:53:31.270Z,34.50
2019-01-15T08:55:58.566Z,30.70
2019-01-15T08:58:25.311Z,33.63
2019-01-15T09:00:51.958Z,31.90
2019-01-15T09:03:18.545Z,31.53
2019-01-15T09:05:45.965Z,30.10
2019-01-15T09:08:12.684Z,28.57
2019-01-15T09:10:40.505Z,29.97
2019-01-15T09:13:09.233Z,34.57
2019-01-15T09:15:36.866Z,30.37
2019-01-15T09:18:04.723Z,28.40
2019-01-15T09:20:31.470Z,35.13
2019-01-15T09:22:58.135Z,33.07
2019-01-15T09:25:24.818Z,30.90
2019-01-15T09:27:51.478Z,31.83
2019-01-15T09:30:24.405Z,34.43
2019-01-15T09:32:50.933Z,30.00
2019-01-15T09:35:20.298Z,31.93
2019-01-15T09:37:48.572Z,29.10
2019-01-15T09:40:19.718Z,29.40
2019-01-15T09:42:46.457Z,30.73
2019-01-15T09:45:15.712Z,26.47
2019-01-15T09:47:50.185Z,27.93
2019-01-15T09:50:19.659Z,29.73
2019-01-15T09:52:48.276Z,34.07
2019-01-15T09:55:16.974Z,27.97
2019-01-15T09:57:45.520Z,25.97
2019-01-15T10:00:14.768Z,29.07
2019-01-15T10:02:43.950Z,29.00
2019-01-15T10:05:10.607Z,31.10
2019-01-15T10:07:39.228Z,21.17
2019-01-15T10:10:09.391Z,25.13
2019-01-15T10:12:36.009Z,23.40
2019-01-15T10:15:06.256Z,23.90
2019-01-15T10:17:32.994Z,29.63
2019-01-15T10:19:59.379Z,24.77
2019-01-15T10:22:26.153Z,20.93
2019-01-15T10:24:52.767Z,23.20
2019-01-15T10:27:19.873Z,22.67
2019-01-15T10:29:48.092Z,21.93
2019-01-15T10:32:29.186Z,27.13
2019-01-15T10:34:57.791Z,22.97
2019-01-15T10:37:24.458Z,22.10
2019-01-15T10:39:50.968Z,19.67
2019-01-15T10:42:17.722Z,23.60
2019-01-15T10:44:48.579Z,21.73
2019-01-15T10:47:13.230Z,23.87
2019-01-15T10:49:39.854Z,20.77
2019-01-15T10:52:07.753Z,22.23
2019-01-15T10:54:34.473Z,19.37
2019-01-15T10:57:01.387Z,19.17
2019-01-15T10:59:27.957Z,22.13
2019-01-15T11:01:55.445Z,17.87
2019-01-15T11:04:22.045Z,22.00
2019-01-15T11:06:48.775Z,25.53
2019-01-15T11:09:15.266Z,20.33
2019-01-15T11:11:41.955Z,17.93
2019-01-15T11:14:10.347Z,17.83
2019-01-15T11:16:36.966Z,21.77
2019-01-15T11:19:03.626Z,16.27
2019-01-15T11:21:33.979Z,15.20
2019-01-15T11:24:00.682Z,18.07
2019-01-15T11:26:27.531Z,19.10
2019-01-15T11:28:55.082Z,16.63
2019-01-15T11:31:23.134Z,17.67
2019-01-15T11:33:51.310Z,14.93
2019-01-15T11:36:18.044Z,20.03
2019-01-15T11:38:44.593Z,15.00
2019-01-15T11:41:11.185Z,17.37
2019-01-15T11:43:39.023Z,16.17
2019-01-15T11:46:05.753Z,21.90
2019-01-15T11:48:35.337Z,17.73
2019-01-15T11:51:01.981Z,15.80
2019-01-15T11:53:28.821Z,17.30
2019-01-15T11:55:55.420Z,14.60
2019-01-15T11:58:24.146Z,15.50
2019-01-15T12:00:58.512Z,16.87
2019-01-15T12:03:29.621Z,14.90
2019-01-15T12:06:05.077Z,14.43
2019-01-15T12:08:50.451Z,13.60
2019-01-15T12:11:21.813Z,14.63
2019-01-15T12:14:06.824Z,17.37
2019-01-15T12:16:48.958Z,11.03
2019-01-15T12:19:18.527Z,15.43
2019-01-15T12:21:50.117Z,12.20
2019-01-15T12:24:36.476Z,11.87
2019-01-15T12:27:21.558Z,15.87
2019-01-15T12:29:58.864Z,10.33
2019-01-15T12:32:43.951Z,12.57
2019-01-15T12:35:27.564Z,14.93
2019-01-15T12:38:01.888Z,14.17
2019-01-15T12:40:37.445Z,11.27
2019-01-15T12:43:16.424Z,11.07
2019-01-15T12:46:00.004Z,12.47
2019-01-15T12:48:37.222Z,14.83
2019-01-15T12:51:17.877Z,13.13
2019-01-15T12:53:58.503Z,7.67
2019-01-15T12:56:39.420Z,17.50
2019-01-15T12:59:07.974Z,8.47
2019-01-15T13:01:52.368Z,9.57
2019-01-15T13:04:24.711Z,11.90
2019-01-15T13:07:02.112Z,11.93
2019-01-15T13:09:47.075Z,10.27
2019-01-15T13:12:15.583Z,10.33
2019-01-15T13:14:56.454Z,10.13
2019-01-15T13:17:42.649Z,10.43
2019-01-15T13:20:30.208Z,8.17
2019-01-15T13:22:59.444Z,11.93
2019-01-15T13:25:33.530Z,7.93
2019-01-15T13:28:02.062Z,8.73
2019-01-15T13:30:30.603Z,9.30
2019-01-15T13:32:58.903Z,10.00
2019-01-15T13:35:39.506Z,9.50
2019-01-15T13:38:10.798Z,11.57
2019-01-15T13:40:48.406Z,9.33
2019-01-15T13:43:19.816Z,8.53
2019-01-15T13:45:48.381Z,8.60
2019-01-15T13:48:16.866Z,9.83
2019-01-15T13:50:47.923Z,7.43
2019-01-15T13:53:16.332Z,8.90
2019-01-15T13:56:02.948Z,10.43
2019-01-15T13:58:37.052Z,10.17
2019-01-15T14:01:11.439Z,11.43
2019-01-15T14:03:42.734Z,12.73
2019-01-15T14:06:13.780Z,9.10
2019-01-15T14:08:45.109Z,6.63
2019-01-15T14:11:13.663Z,7.60
2019-01-15T14:13:58.833Z,10.27
2019-01-15T14:16:30.155Z,11.83
2019-01-15T14:19:01.230Z,8.20
2019-01-15T14:21:29.663Z,10.57
2019-01-15T14:24:07.223Z,8.57
2019-01-15T14:26:38.349Z,8.30
2019-01-15T14:29:06.912Z,9.33
2019-01-15T14:31:41.341Z,9.77
2019-01-15T14:34:09.882Z,13.87
2019-01-15T14:36:47.226Z,10.43
2019-01-15T14:39:27.811Z,7.83
2019-01-15T14:42:02.399Z,11.67
2019-01-15T14:44:30.866Z,10.13
2019-01-15T14:47:16.292Z,8.17
2019-01-15T14:49:44.867Z,8.73
2019-01-15T14:52:19.179Z,9.73
2019-01-15T14:55:05.863Z,10.37
2019-01-15T14:57:34.432Z,8.67
2019-01-15T15:00:05.544Z,7.33
2019-01-15T15:02:46.012Z,11.80
2019-01-15T15:05:17.360Z,10.67
2019-01-15T15:08:02.698Z,10.93
2019-01-15T15:10:40.073Z,9.23
2019-01-15T15:13:19.150Z,12.50
2019-01-15T15:16:04.512Z,6.00
2019-01-15T15:18:36.838Z,10.27
2019-01-15T15:21:08.173Z,8.30
2019-01-15T15:23:51.828Z,8.13
2019-01-15T15:26:24.513Z,11.97
2019-01-15T15:28:55.568Z,10.30
2019-01-15T15:31:27.064Z,8.23
2019-01-15T15:34:07.601Z,8.60
2019-01-15T15:36:38.824Z,10.77
2019-01-15T15:39:10.858Z,9.60
2019-01-15T15:41:43.486Z,8.50
2019-01-15T15:44:17.877Z,8.80
2019-01-15T15:46:48.328Z,11.37
2019-01-15T15:49:32.886Z,13.00
2019-01-15T15:52:10.249Z,10.30
2019-01-15T15:54:55.393Z,8.53
2019-01-15T15:57:23.955Z,8.87
2019-01-15T15:59:53.854Z,12.73
2019-01-15T16:02:34.486Z,9.17
2019-01-15T16:05:02.927Z,14.07
2019-01-15T16:07:43.266Z,8.40
2019-01-15T16:10:29.824Z,7.83
2019-01-15T16:13:16.485Z,11.80
2019-01-15T16:15:45.044Z,10.57
2019-01-15T16:18:25.840Z,8.10
2019-01-15T16:21:09.533Z,9.27
2019-01-15T16:23:52.876Z,11.00
2019-01-15T16:26:26.223Z,13.47
2019-01-15T16:28:57.284Z,11.43
2019-01-15T16:31:37.614Z,10.27
2019-01-15T16:34:22.681Z,10.93
2019-01-15T16:37:00.089Z,11.50
2019-01-15T16:39:45.329Z,8.93
2019-01-15T16:42:31.666Z,9.57
2019-01-15T16:45:02.957Z,10.80
2019-01-15T16:47:48.080Z,9.17
2019-01-15T16:50:31.733Z,7.93
2019-01-15T16:53:06.192Z,10.30
2019-01-15T16:55:34.679Z,10.43
2019-01-15T16:58:12.039Z,10.70
2019-01-15T17:00:43.094Z,9.90
2019-01-15T17:03:29.493Z,13.83
2019-01-15T17:06:07.053Z,12.80
2019-01-15T17:08:50.338Z,9.03
2019-01-15T17:11:33.852Z,12.67
2019-01-15T17:14:20.116Z,8.90
2019-01-15T17:16:54.611Z,10.33
2019-01-15T17:19:28.720Z,8.80
2019-01-15T17:22:06.246Z,9.33
2019-01-15T17:24:34.737Z,9.17
2019-01-15T17:27:03.230Z,8.37
2019-01-15T17:29:36.068Z,11.00
2019-01-15T17:32:04.741Z,11.63
2019-01-15T17:34:33.156Z,11.53
2019-01-15T17:37:16.766Z,9.57
2019-01-15T17:39:54.380Z,9.60
2019-01-15T17:42:38.205Z,10.63
2019-01-15T17:45:24.664Z,11.77
2019-01-15T17:48:05.133Z,11.97
2019-01-15T17:50:42.183Z,12.50
2019-01-15T17:53:27.002Z,12.17
2019-01-15T17:56:12.296Z,11.33
2019-01-15T17:58:40.752Z,11.97
2019-01-15T18:01:18.403Z,12.57
2019-01-15T18:03:53.391Z,11.87
2019-01-15T18:06:25.014Z,13.10
2019-01-15T18:08:56.318Z,10.73
2019-01-15T18:11:34.764Z,13.90
2019-01-15T18:14:26.675Z,9.77
2019-01-15T18:16:49.980Z,9.43
2019-01-15T18:19:21.391Z,14.17
2019-01-15T18:21:49.938Z,13.37
2019-01-15T18:24:24.733Z,11.33
2019-01-15T18:26:54.986Z,12.13
2019-01-15T18:29:25.315Z,11.67
2019-01-15T18:32:02.630Z,9.13
2019-01-15T18:34:46.182Z,12.87
2019-01-15T18:37:20.639Z,12.87
2019-01-15T18:39:49.577Z,13.43
2019-01-15T18:42:19.053Z,10.10
2019-01-15T18:44:50.094Z,10.93
2019-01-15T18:47:35.417Z,11.33
2019-01-15T18:50:14.620Z,9.53
2019-01-15T18:52:48.929Z,13.63
2019-01-15T18:55:17.353Z,11.13
2019-01-15T18:57:51.947Z,12.97
2019-01-15T19:00:37.114Z,11.67
2019-01-15T19:03:22.659Z,11.67
2019-01-15T19:05:58.481Z,11.17
2019-01-15T19:08:35.615Z,10.03
2019-01-15T19:11:13.046Z,9.77
2019-01-15T19:13:41.603Z,8.40
2019-01-15T19:16:19.070Z,11.07
2019-01-15T19:18:47.648Z,11.93
2019-01-15T19:21:18.953Z,11.83
2019-01-15T19:23:59.576Z,10.93
2019-01-15T19:26:37.162Z,10.13
2019-01-15T19:29:18.043Z,13.40
2019-01-15T19:32:03.389Z,10.17
2019-01-15T19:34:44.037Z,10.50
2019-01-15T19:37:12.781Z,11.60
2019-01-15T19:39:43.894Z,9.30
2019-01-15T19:42:18.061Z,13.87
2019-01-15T19:45:01.699Z,11.73
2019-01-15T19:47:39.049Z,11.27
2019-01-15T19:50:10.293Z,12.20
2019-01-15T19:52:50.532Z,11.00
2019-01-15T19:55:18.873Z,9.63
2019-01-15T19:57:57.391Z,10.33
2019-01-15T20:00:31.842Z,12.37
2019-01-15T20:03:18.650Z,11.30
2019-01-15T20:05:53.047Z,11.60
2019-01-15T20:08:24.172Z,12.10
2019-01-15T20:10:55.245Z,9.50
2019-01-15T20:13:35.813Z,10.37
2019-01-15T20:16:13.186Z,10.27
2019-01-15T20:18:58.159Z,9.63
2019-01-15T20:21:44.773Z,8.93
2019-01-15T20:24:25.363Z,17.87
2019-01-15T20:26:59.473Z,8.20
2019-01-15T20:29:30.574Z,8.50
2019-01-15T20:31:59.077Z,12.37
2019-01-15T20:34:43.675Z,9.83
2019-01-15T20:37:27.348Z,9.77
2019-01-15T20:39:55.922Z,10.53
2019-01-15T20:42:28.973Z,10.13
2019-01-15T20:45:13.994Z,9.80
2019-01-15T20:47:48.369Z,8.87
2019-01-15T20:50:33.751Z,10.53
2019-01-15T20:53:05.182Z,11.13
2019-01-15T20:55:50.295Z,12.97
2019-01-15T20:58:21.545Z,12.30
2019-01-15T21:00:56.831Z,11.63
2019-01-15T21:03:41.777Z,10.27
2019-01-15T21:06:10.395Z,11.27
2019-01-15T21:08:39.772Z,9.60
2019-01-15T21:11:08.379Z,10.23
2019-01-15T21:13:39.591Z,8.70
2019-01-15T21:16:10.903Z,10.17
2019-01-15T21:18:39.356Z,10.00
2019-01-15T21:21:07.875Z,8.93
2019-01-15T21:23:41.172Z,9.63
2019-01-15T21:26:11.075Z,8.30
2019-01-15T21:28:40.457Z,7.50
2019-01-15T21:31:08.996Z,12.83
2019-01-15T21:33:37.432Z,10.30
2019-01-15T21:36:12.503Z,11.80
2019-01-15T21:38:43.779Z,11.60
2019-01-15T21:41:18.252Z,11.97
2019-01-15T21:44:03.573Z,10.37
2019-01-15T21:46:47.126Z,9.30
2019-01-15T21:49:22.432Z,11.13
2019-01-15T21:51:57.260Z,10.50
2019-01-15T21:54:40.885Z,11.97
2019-01-15T21:57:09.397Z,13.40
2019-01-15T21:59:37.892Z,12.63
2019-01-15T22:02:09.233Z,11.67
2019-01-15T22:04:37.676Z,14.10
2019-01-15T22:07:18.035Z,12.13
2019-01-15T22:09:56.244Z,14.60
2019-01-15T22:12:24.748Z,13.57
2019-01-15T22:15:05.402Z,10.80
2019-01-15T22:17:36.502Z,13.23
2019-01-15T22:20:08.573Z,13.53
2019-01-15T22:22:53.375Z,11.10
2019-01-15T22:25:24.812Z,11.33
2019-01-15T22:27:53.228Z,12.53
2019-01-15T22:30:21.667Z,9.30
2019-01-15T22:32:52.986Z,11.80
2019-01-15T22:35:21.552Z,11.77
2019-01-15T22:37:50.041Z,11.07
2019-01-15T22:40:19.410Z,13.60
2019-01-15T22:43:04.249Z,13.00
2019-01-15T22:45:32.895Z,13.30
2019-01-15T22:48:18.004Z,14.60
2019-01-15T22:51:03.098Z,11.77
2019-01-15T22:53:34.892Z,13.30
2019-01-15T22:56:21.529Z,15.30
2019-01-15T22:59:08.270Z,15.70
2019-01-15T23:01:36.824Z,14.60
2019-01-15T23:04:21.567Z,16.83
2019-01-15T23:06:50.100Z,16.90
2019-01-15T23:09:21.143Z,16.83
2019-01-15T23:11:55.684Z,16.10
2019-01-15T23:14:34.345Z,16.37
2019-01-15T23:17:05.451Z,17.97
2019-01-15T23:19:49.138Z,17.90
2019-01-15T23:22:17.681Z,19.50
2019-01-15T23:24:48.963Z,18.23
2019-01-15T23:27:22.504Z,21.57
2019-01-15T23:29:51.037Z,18.63
2019-01-15T23:32:25.572Z,21.23
2019-01-15T23:34:57.192Z,17.83
2019-01-15T23:37:25.717Z,17.43
2019-01-15T23:40:00.094Z,15.10
2019-01-15T23:42:45.083Z,16.77
2019-01-15T23:45:22.427Z,17.83
2019-01-15T23:47:53.543Z,15.90
2019-01-15T23:50:22.075Z,16.50
2019-01-15T23:52:53.086Z,20.53
2019-01-15T23:55:39.493Z,15.73
2019-01-15T23:58:17.013Z,15.10
